TimeMST,TemperatureF,Dew PointF,Humidity,Sea Level PressureIn,VisibilityMPH,Wind Direction,Wind SpeedMPH,Gust SpeedMPH,PrecipitationIn,Events,Conditions,WindDirDegrees,DateUTC
12:15 AM,82.4,68.0,62,29.93,10.0,Calm,Calm,-,N/A,,Clear,0,2013-08-25 07:15:00
12:35 AM,82.4,69.8,66,29.93,10.0,Calm,Calm,-,N/A,,Clear,0,2013-08-25 07:35:00
12:55 AM,82.4,68.0,62,29.93,10.0,Calm,Calm,-,N/A,,Clear,0,2013-08-25 07:55:00
1:15 AM,82.4,68.0,62,29.94,10.0,Calm,Calm,-,N/A,,Clear,0,2013-08-25 08:15:00
1:35 AM,82.4,68.0,62,29.94,10.0,SSW,3.5,-,N/A,,Clear,210,2013-08-25 08:35:00
1:55 AM,82.4,66.2,58,29.95,10.0,SE,8.1,-,N/A,,Clear,130,2013-08-25 08:55:00
2:15 AM,80.6,64.4,58,29.95,10.0,SSE,5.8,-,N/A,Rain,Light Rain,160,2013-08-25 09:15:00
2:35 AM,80.6,68.0,65,29.95,10.0,SSE,3.5,-,N/A,,Clear,150,2013-08-25 09:35:00
2:55 AM,80.6,64.4,58,29.95,10.0,SE,5.8,-,N/A,,Clear,130,2013-08-25 09:55:00
3:15 AM,80.6,64.4,58,29.95,10.0,ESE,5.8,-,N/A,,Clear,120,2013-08-25 10:15:00
3:35 AM,80.6,66.2,61,29.95,10.0,ESE,4.6,-,N/A,,Clear,110,2013-08-25 10:35:00
3:55 AM,80.6,64.4,58,29.96,10.0,SE,4.6,-,N/A,,Clear,140,2013-08-25 10:55:00
4:15 AM,78.8,68.0,69,29.97,10.0,SE,4.6,-,N/A,Rain,Light Rain,140,2013-08-25 11:15:00
4:35 AM,78.8,68.0,69,29.97,10.0,SSE,3.5,-,N/A,,Light Drizzle,160,2013-08-25 11:35:00
4:47 AM,78.8,69.8,74,29.97,20.0,SSE,4.6,-,N/A,Rain,Light Rain,150,2013-08-25 11:47:00
4:55 AM,78.8,68.0,69,29.97,10.0,Calm,Calm,-,N/A,,Light Drizzle,0,2013-08-25 11:55:00
5:15 AM,78.8,69.8,74,29.98,10.0,Calm,Calm,-,N/A,Rain,Light Rain,0,2013-08-25 12:15:00
5:35 AM,78.8,69.8,74,29.98,10.0,Calm,Calm,-,N/A,,Clear,0,2013-08-25 12:35:00
5:47 AM,80.6,69.8,70,29.98,20.0,Variable,4.6,-,N/A,,Overcast,0,2013-08-25 12:47:00
6:47 AM,78.8,69.8,74,30.00,20.0,Calm,Calm,-,N/A,,Overcast,0,2013-08-25 13:47:00
7:47 AM,80.6,68.0,65,30.00,30.0,Calm,Calm,-,N/A,,Overcast,0,2013-08-25 14:47:00
8:47 AM,84.2,66.2,55,30.01,30.0,Variable,3.5,-,N/A,,Overcast,0,2013-08-25 15:47:00
9:47 AM,84.2,64.4,51,30.02,30.0,Calm,Calm,-,N/A,,Overcast,0,2013-08-25 16:47:00
10:47 AM,86.0,62.6,45,30.01,30.0,NW,8.1,-,N/A,,Overcast,310,2013-08-25 17:47:00
11:47 AM,87.8,62.6,43,30.01,30.0,WNW,6.9,-,N/A,,Overcast,300,2013-08-25 18:47:00
12:47 PM,89.6,62.6,40,30.00,30.0,Variable,4.6,-,N/A,,Overcast,0,2013-08-25 19:47:00
1:50 PM,91.4,66.2,43,29.98,30.0,NW,11.5,-,N/A,,Overcast,320,2013-08-25 20:50:00
3:49 PM,93.2,64.4,38,29.93,30.0,NW,18.4,26.5,N/A,,Mostly Cloudy,310,2013-08-25 22:49:00
4:50 PM,91.4,60.8,36,29.92,30.0,NW,17.3,23.0,N/A,,Mostly Cloudy,310,2013-08-25 23:50:00
5:50 PM,87.8,60.8,40,29.93,20.0,WNW,16.1,-,N/A,Rain,Light Rain,300,2013-08-26 00:50:00
6:47 PM,84.2,60.8,45,29.94,20.0,NW,11.5,-,N/A,Rain,Light Rain,310,2013-08-26 01:47:00
7:47 PM,86.0,57.2,37,29.95,20.0,WNW,6.9,-,N/A,,Mostly Cloudy,300,2013-08-26 02:47:00
7:55 PM,86.0,57.2,37,29.95,10.0,NW,8.1,-,N/A,,Scattered Clouds,320,2013-08-26 02:55:00
8:15 PM,86.0,57.2,37,29.96,10.0,NW,6.9,-,N/A,,Clear,320,2013-08-26 03:15:00
8:35 PM,86.0,55.4,35,29.97,10.0,NW,6.9,-,N/A,,Scattered Clouds,320,2013-08-26 03:35:00
8:47 PM,86.0,57.2,37,29.97,20.0,NW,5.8,-,N/A,,Overcast,310,2013-08-26 03:47:00
8:55 PM,86.0,55.4,35,29.97,10.0,NW,6.9,-,N/A,,Scattered Clouds,310,2013-08-26 03:55:00
9:15 PM,86.0,57.2,37,29.98,10.0,West,5.8,-,N/A,Rain,Light Rain,280,2013-08-26 04:15:00
9:35 PM,84.2,59.0,42,29.98,10.0,NW,5.8,-,N/A,,Clear,310,2013-08-26 04:35:00
9:47 PM,84.2,60.8,45,29.98,20.0,NNW,4.6,-,N/A,,Overcast,330,2013-08-26 04:47:00
9:55 PM,84.2,59.0,42,29.98,10.0,NW,3.5,-,N/A,,Clear,320,2013-08-26 04:55:00
10:15 PM,84.2,60.8,45,29.98,10.0,NW,3.5,-,N/A,,Clear,310,2013-08-26 05:15:00
10:35 PM,82.4,60.8,48,29.97,10.0,NW,8.1,-,N/A,,Clear,310,2013-08-26 05:35:00
10:47 PM,84.2,60.8,45,29.97,20.0,NW,6.9,-,N/A,,Overcast,310,2013-08-26 05:47:00
10:55 PM,82.4,60.8,48,29.97,10.0,NW,6.9,-,N/A,,Clear,310,2013-08-26 05:55:00
11:15 PM,82.4,60.8,48,29.96,10.0,NW,6.9,-,N/A,,Scattered Clouds,310,2013-08-26 06:15:00
11:35 PM,82.4,60.8,48,29.96,10.0,NW,5.8,-,N/A,,Scattered Clouds,320,2013-08-26 06:35:00
11:47 PM,84.2,62.6,48,29.96,20.0,NNW,5.8,-,N/A,,Mostly Cloudy,330,2013-08-26 06:47:00
11:55 PM,82.4,62.6,51,29.97,10.0,NW,4.6,-,N/A,,Clear,320,2013-08-26 06:55:00